sensor_id;sensor_type;location;lat;lon;timestamp;P1;durP1;ratioP1;P2;durP2;ratioP2
27213;SDS011;14723;55.814;37.460;2023-03-14T00:00:41;6.07;;;1.80;;
27213;SDS011;14723;55.814;37.460;2023-03-14T00:03:48;5.43;;;1.88;;
27213;SDS011;14723;55.814;37.460;2023-03-14T00:06:54;4.35;;;1.85;;
27213;SDS011;14723;55.814;37.460;2023-03-14T00:09:59;7.35;;;1.75;;
27213;SDS011;14723;55.814;37.460;2023-03-14T00:13:06;6.18;;;1.98;;
27213;SDS011;14723;55.814;37.460;2023-03-14T00:16:11;3.35;;;1.90;;
27213;SDS011;14723;55.814;37.460;2023-03-14T00:19:20;4.28;;;1.63;;
27213;SDS011;14723;55.814;37.460;2023-03-14T00:22:26;6.10;;;2.25;;
27213;SDS011;14723;55.814;37.460;2023-03-14T00:25:31;2.80;;;1.88;;
27213;SDS011;14723;55.814;37.460;2023-03-14T00:28:36;4.88;;;1.80;;
27213;SDS011;14723;55.814;37.460;2023-03-14T00:31:43;4.63;;;1.98;;
27213;SDS011;14723;55.814;37.460;2023-03-14T00:34:51;2.80;;;1.60;;
27213;SDS011;14723;55.814;37.460;2023-03-14T00:37:56;5.10;;;1.65;;
27213;SDS011;14723;55.814;37.460;2023-03-14T00:41:03;3.63;;;1.55;;
27213;SDS011;14723;55.814;37.460;2023-03-14T00:44:08;5.95;;;2.35;;
27213;SDS011;14723;55.814;37.460;2023-03-14T00:47:13;4.10;;;2.20;;
27213;SDS011;14723;55.814;37.460;2023-03-14T00:50:21;4.93;;;2.38;;
27213;SDS011;14723;55.814;37.460;2023-03-14T00:53:26;7.63;;;2.35;;
27213;SDS011;14723;55.814;37.460;2023-03-14T00:56:32;3.75;;;2.15;;
27213;SDS011;14723;55.814;37.460;2023-03-14T00:59:37;4.20;;;2.40;;
27213;SDS011;14723;55.814;37.460;2023-03-14T01:02:42;6.95;;;3.47;;
27213;SDS011;14723;55.814;37.460;2023-03-14T01:05:50;8.68;;;2.97;;
27213;SDS011;14723;55.814;37.460;2023-03-14T01:08:55;8.73;;;2.85;;
27213;SDS011;14723;55.814;37.460;2023-03-14T01:12:01;9.88;;;3.50;;
27213;SDS011;14723;55.814;37.460;2023-03-14T01:15:07;7.82;;;2.80;;
27213;SDS011;14723;55.814;37.460;2023-03-14T01:18:12;8.30;;;3.38;;
27213;SDS011;14723;55.814;37.460;2023-03-14T01:21:21;5.72;;;3.60;;
27213;SDS011;14723;55.814;37.460;2023-03-14T01:24:27;5.72;;;3.20;;
27213;SDS011;14723;55.814;37.460;2023-03-14T01:27:33;7.65;;;3.60;;
27213;SDS011;14723;55.814;37.460;2023-03-14T01:30:39;6.30;;;3.30;;
27213;SDS011;14723;55.814;37.460;2023-03-14T01:33:44;6.35;;;3.25;;
27213;SDS011;14723;55.814;37.460;2023-03-14T01:36:52;5.65;;;3.03;;
27213;SDS011;14723;55.814;37.460;2023-03-14T01:39:58;7.93;;;3.17;;
27213;SDS011;14723;55.814;37.460;2023-03-14T01:43:06;6.63;;;2.88;;
27213;SDS011;14723;55.814;37.460;2023-03-14T01:46:17;7.43;;;3.30;;
27213;SDS011;14723;55.814;37.460;2023-03-14T01:49:24;7.55;;;3.03;;
27213;SDS011;14723;55.814;37.460;2023-03-14T01:52:39;5.68;;;3.00;;
27213;SDS011;14723;55.814;37.460;2023-03-14T01:55:44;7.90;;;3.25;;
27213;SDS011;14723;55.814;37.460;2023-03-14T01:58:50;6.50;;;3.50;;
27213;SDS011;14723;55.814;37.460;2023-03-14T02:01:56;5.88;;;3.60;;
27213;SDS011;14723;55.814;37.460;2023-03-14T02:05:05;7.50;;;3.78;;
27213;SDS011;14723;55.814;37.460;2023-03-14T02:08:16;7.72;;;3.65;;
27213;SDS011;14723;55.814;37.460;2023-03-14T02:11:36;6.60;;;3.22;;
27213;SDS011;14723;55.814;37.460;2023-03-14T02:15:07;5.97;;;3.35;;
27213;SDS011;14723;55.814;37.460;2023-03-14T02:18:32;8.05;;;4.32;;
27213;SDS011;14723;55.814;37.460;2023-03-14T02:22:01;8.40;;;3.85;;
27213;SDS011;14723;55.814;37.460;2023-03-14T02:25:34;5.72;;;3.50;;
27213;SDS011;14723;55.814;37.460;2023-03-14T02:28:44;10.63;;;4.10;;
27213;SDS011;14723;55.814;37.460;2023-03-14T02:31:50;9.55;;;4.15;;
27213;SDS011;14723;55.814;37.460;2023-03-14T02:34:56;8.27;;;3.72;;
27213;SDS011;14723;55.814;37.460;2023-03-14T02:38:04;12.80;;;3.57;;
27213;SDS011;14723;55.814;37.460;2023-03-14T02:41:16;11.40;;;3.88;;
27213;SDS011;14723;55.814;37.460;2023-03-14T02:44:34;11.60;;;4.88;;
27213;SDS011;14723;55.814;37.460;2023-03-14T02:47:42;10.70;;;4.40;;
27213;SDS011;14723;55.814;37.460;2023-03-14T02:50:50;7.75;;;4.13;;
27213;SDS011;14723;55.814;37.460;2023-03-14T02:53:57;10.02;;;4.50;;
27213;SDS011;14723;55.814;37.460;2023-03-14T02:57:03;6.60;;;3.67;;
27213;SDS011;14723;55.814;37.460;2023-03-14T03:00:11;8.20;;;4.18;;
27213;SDS011;14723;55.814;37.460;2023-03-14T03:03:17;6.97;;;4.43;;
27213;SDS011;14723;55.814;37.460;2023-03-14T03:06:22;10.77;;;5.05;;
27213;SDS011;14723;55.814;37.460;2023-03-14T03:09:28;9.15;;;4.90;;
27213;SDS011;14723;55.814;37.460;2023-03-14T03:12:33;11.10;;;5.05;;
27213;SDS011;14723;55.814;37.460;2023-03-14T03:15:42;9.55;;;5.30;;
27213;SDS011;14723;55.814;37.460;2023-03-14T03:18:47;10.70;;;5.55;;
27213;SDS011;14723;55.814;37.460;2023-03-14T03:21:55;12.85;;;5.88;;
27213;SDS011;14723;55.814;37.460;2023-03-14T03:25:00;10.93;;;5.40;;
27213;SDS011;14723;55.814;37.460;2023-03-14T03:28:06;9.18;;;5.43;;
27213;SDS011;14723;55.814;37.460;2023-03-14T03:31:16;9.50;;;5.60;;
27213;SDS011;14723;55.814;37.460;2023-03-14T03:34:21;9.85;;;5.32;;
27213;SDS011;14723;55.814;37.460;2023-03-14T03:37:27;8.30;;;4.97;;
27213;SDS011;14723;55.814;37.460;2023-03-14T03:40:34;8.77;;;5.20;;
27213;SDS011;14723;55.814;37.460;2023-03-14T03:43:40;6.75;;;5.40;;
27213;SDS011;14723;55.814;37.460;2023-03-14T03:46:51;9.73;;;5.50;;
27213;SDS011;14723;55.814;37.460;2023-03-14T03:53:03;8.63;;;5.10;;
27213;SDS011;14723;55.814;37.460;2023-03-14T03:56:08;8.57;;;5.40;;
27213;SDS011;14723;55.814;37.460;2023-03-14T03:59:15;9.57;;;5.57;;
27213;SDS011;14723;55.814;37.460;2023-03-14T04:02:24;9.63;;;5.95;;
27213;SDS011;14723;55.814;37.460;2023-03-14T04:08:41;12.30;;;6.20;;
27213;SDS011;14723;55.814;37.460;2023-03-14T04:12:00;11.27;;;6.10;;
27213;SDS011;14723;55.814;37.460;2023-03-14T04:18:40;11.98;;;6.75;;
27213;SDS011;14723;55.814;37.460;2023-03-14T04:21:45;9.57;;;5.95;;
27213;SDS011;14723;55.814;37.460;2023-03-14T04:24:51;12.05;;;6.47;;
27213;SDS011;14723;55.814;37.460;2023-03-14T04:27:57;10.70;;;6.18;;
27213;SDS011;14723;55.814;37.460;2023-03-14T04:31:06;8.48;;;5.70;;
27213;SDS011;14723;55.814;37.460;2023-03-14T04:34:15;9.35;;;6.45;;
27213;SDS011;14723;55.814;37.460;2023-03-14T04:37:25;12.43;;;7.20;;
27213;SDS011;14723;55.814;37.460;2023-03-14T04:40:31;8.13;;;5.45;;
27213;SDS011;14723;55.814;37.460;2023-03-14T04:43:39;10.80;;;6.07;;
27213;SDS011;14723;55.814;37.460;2023-03-14T04:46:46;11.80;;;5.93;;
27213;SDS011;14723;55.814;37.460;2023-03-14T04:49:54;9.85;;;6.03;;
27213;SDS011;14723;55.814;37.460;2023-03-14T04:56:05;12.27;;;6.00;;
27213;SDS011;14723;55.814;37.460;2023-03-14T04:59:13;10.20;;;6.32;;
27213;SDS011;14723;55.814;37.460;2023-03-14T05:02:18;10.40;;;5.65;;
27213;SDS011;14723;55.814;37.460;2023-03-14T05:05:45;12.48;;;6.38;;
27213;SDS011;14723;55.814;37.460;2023-03-14T05:09:08;12.05;;;6.10;;
27213;SDS011;14723;55.814;37.460;2023-03-14T05:12:29;10.50;;;5.68;;
27213;SDS011;14723;55.814;37.460;2023-03-14T05:16:04;9.18;;;5.95;;
27213;SDS011;14723;55.814;37.460;2023-03-14T05:19:38;12.00;;;5.82;;
27213;SDS011;14723;55.814;37.460;2023-03-14T05:23:03;10.82;;;5.57;;
27213;SDS011;14723;55.814;37.460;2023-03-14T05:26:27;8.82;;;5.30;;
27213;SDS011;14723;55.814;37.460;2023-03-14T05:29:50;7.68;;;4.85;;
27213;SDS011;14723;55.814;37.460;2023-03-14T05:33:09;8.80;;;4.20;;
27213;SDS011;14723;55.814;37.460;2023-03-14T05:36:50;8.25;;;4.70;;
27213;SDS011;14723;55.814;37.460;2023-03-14T05:40:27;11.93;;;4.53;;
27213;SDS011;14723;55.814;37.460;2023-03-14T05:43:47;10.43;;;6.35;;
27213;SDS011;14723;55.814;37.460;2023-03-14T05:47:16;8.73;;;4.65;;
27213;SDS011;14723;55.814;37.460;2023-03-14T05:50:30;12.20;;;5.43;;
27213;SDS011;14723;55.814;37.460;2023-03-14T05:53:54;7.20;;;4.30;;
27213;SDS011;14723;55.814;37.460;2023-03-14T05:57:21;8.48;;;4.55;;
27213;SDS011;14723;55.814;37.460;2023-03-14T06:00:49;10.98;;;4.95;;
27213;SDS011;14723;55.814;37.460;2023-03-14T06:04:12;9.02;;;4.85;;
27213;SDS011;14723;55.814;37.460;2023-03-14T06:07:22;6.30;;;3.80;;
27213;SDS011;14723;55.814;37.460;2023-03-14T06:10:27;8.38;;;4.43;;
27213;SDS011;14723;55.814;37.460;2023-03-14T06:13:35;9.02;;;4.13;;
27213;SDS011;14723;55.814;37.460;2023-03-14T06:16:40;8.40;;;4.03;;
27213;SDS011;14723;55.814;37.460;2023-03-14T06:19:46;8.95;;;4.40;;
27213;SDS011;14723;55.814;37.460;2023-03-14T06:22:51;12.60;;;4.53;;
27213;SDS011;14723;55.814;37.460;2023-03-14T06:25:57;7.20;;;3.95;;
27213;SDS011;14723;55.814;37.460;2023-03-14T06:29:06;8.77;;;4.50;;
27213;SDS011;14723;55.814;37.460;2023-03-14T06:32:12;7.25;;;3.38;;
27213;SDS011;14723;55.814;37.460;2023-03-14T06:35:17;10.18;;;4.00;;
27213;SDS011;14723;55.814;37.460;2023-03-14T06:38:23;11.52;;;4.47;;
27213;SDS011;14723;55.814;37.460;2023-03-14T06:41:30;6.80;;;3.92;;
27213;SDS011;14723;55.814;37.460;2023-03-14T06:44:38;6.32;;;3.85;;
27213;SDS011;14723;55.814;37.460;2023-03-14T06:47:44;8.10;;;3.45;;
27213;SDS011;14723;55.814;37.460;2023-03-14T06:50:50;9.95;;;3.65;;
27213;SDS011;14723;55.814;37.460;2023-03-14T06:53:56;7.68;;;3.65;;
27213;SDS011;14723;55.814;37.460;2023-03-14T06:57:03;6.40;;;3.80;;
27213;SDS011;14723;55.814;37.460;2023-03-14T07:00:11;6.95;;;3.55;;
27213;SDS011;14723;55.814;37.460;2023-03-14T07:03:17;7.28;;;4.20;;
27213;SDS011;14723;55.814;37.460;2023-03-14T07:06:24;8.93;;;3.80;;
27213;SDS011;14723;55.814;37.460;2023-03-14T07:09:31;9.30;;;3.85;;
27213;SDS011;14723;55.814;37.460;2023-03-14T07:12:36;7.05;;;3.60;;
27213;SDS011;14723;55.814;37.460;2023-03-14T07:15:44;7.10;;;3.47;;
27213;SDS011;14723;55.814;37.460;2023-03-14T07:18:50;14.52;;;3.72;;
27213;SDS011;14723;55.814;37.460;2023-03-14T07:21:55;6.75;;;3.90;;
27213;SDS011;14723;55.814;37.460;2023-03-14T07:25:02;7.53;;;3.60;;
27213;SDS011;14723;55.814;37.460;2023-03-14T07:28:08;8.77;;;3.75;;
27213;SDS011;14723;55.814;37.460;2023-03-14T07:31:18;9.02;;;3.65;;
27213;SDS011;14723;55.814;37.460;2023-03-14T07:34:23;5.90;;;3.67;;
27213;SDS011;14723;55.814;37.460;2023-03-14T07:37:29;7.38;;;3.78;;
27213;SDS011;14723;55.814;37.460;2023-03-14T07:40:37;9.98;;;3.72;;
27213;SDS011;14723;55.814;37.460;2023-03-14T07:43:42;6.80;;;3.83;;
27213;SDS011;14723;55.814;37.460;2023-03-14T07:46:50;8.77;;;3.67;;
27213;SDS011;14723;55.814;37.460;2023-03-14T07:49:56;8.30;;;3.72;;
27213;SDS011;14723;55.814;37.460;2023-03-14T07:53:01;8.15;;;4.00;;
27213;SDS011;14723;55.814;37.460;2023-03-14T07:56:07;8.52;;;4.00;;
27213;SDS011;14723;55.814;37.460;2023-03-14T07:59:12;7.07;;;3.90;;
27213;SDS011;14723;55.814;37.460;2023-03-14T08:02:20;10.73;;;3.75;;
27213;SDS011;14723;55.814;37.460;2023-03-14T08:05:26;9.80;;;4.32;;
27213;SDS011;14723;55.814;37.460;2023-03-14T08:08:31;9.23;;;3.80;;
27213;SDS011;14723;55.814;37.460;2023-03-14T08:11:36;9.73;;;4.93;;
27213;SDS011;14723;55.814;37.460;2023-03-14T08:14:42;9.75;;;3.70;;
27213;SDS011;14723;55.814;37.460;2023-03-14T08:17:49;7.30;;;3.90;;
27213;SDS011;14723;55.814;37.460;2023-03-14T08:20:56;8.82;;;3.03;;
27213;SDS011;14723;55.814;37.460;2023-03-14T08:24:01;8.68;;;3.42;;
27213;SDS011;14723;55.814;37.460;2023-03-14T08:27:07;6.75;;;3.45;;
27213;SDS011;14723;55.814;37.460;2023-03-14T08:30:17;8.48;;;4.25;;
27213;SDS011;14723;55.814;37.460;2023-03-14T08:33:25;7.78;;;4.13;;
27213;SDS011;14723;55.814;37.460;2023-03-14T08:36:30;6.65;;;3.53;;
27213;SDS011;14723;55.814;37.460;2023-03-14T08:39:35;6.90;;;3.50;;
27213;SDS011;14723;55.814;37.460;2023-03-14T08:42:41;8.10;;;4.20;;
27213;SDS011;14723;55.814;37.460;2023-03-14T08:45:46;6.82;;;3.92;;
27213;SDS011;14723;55.814;37.460;2023-03-14T08:48:54;8.75;;;4.10;;
27213;SDS011;14723;55.814;37.460;2023-03-14T08:52:01;10.73;;;3.85;;
27213;SDS011;14723;55.814;37.460;2023-03-14T08:55:07;7.28;;;3.72;;
27213;SDS011;14723;55.814;37.460;2023-03-14T08:58:13;8.13;;;3.58;;
27213;SDS011;14723;55.814;37.460;2023-03-14T09:01:18;6.55;;;3.88;;
27213;SDS011;14723;55.814;37.460;2023-03-14T09:04:28;9.15;;;3.83;;
27213;SDS011;14723;55.814;37.460;2023-03-14T09:07:34;7.60;;;4.15;;
27213;SDS011;14723;55.814;37.460;2023-03-14T09:10:39;6.28;;;3.65;;
27213;SDS011;14723;55.814;37.460;2023-03-14T09:13:45;8.50;;;4.22;;
27213;SDS011;14723;55.814;37.460;2023-03-14T09:16:50;8.00;;;4.07;;
27213;SDS011;14723;55.814;37.460;2023-03-14T09:19:58;6.80;;;4.30;;
27213;SDS011;14723;55.814;37.460;2023-03-14T09:23:03;8.20;;;4.28;;
27213;SDS011;14723;55.814;37.460;2023-03-14T09:26:09;7.90;;;4.03;;
27213;SDS011;14723;55.814;37.460;2023-03-14T09:29:14;8.52;;;3.50;;
27213;SDS011;14723;55.814;37.460;2023-03-14T09:32:19;6.72;;;3.85;;
27213;SDS011;14723;55.814;37.460;2023-03-14T09:35:27;7.68;;;4.78;;
27213;SDS011;14723;55.814;37.460;2023-03-14T09:38:32;5.72;;;3.83;;
27213;SDS011;14723;55.814;37.460;2023-03-14T09:41:38;7.15;;;3.78;;
27213;SDS011;14723;55.814;37.460;2023-03-14T09:44:46;11.70;;;4.57;;
27213;SDS011;14723;55.814;37.460;2023-03-14T09:47:55;8.35;;;4.40;;
27213;SDS011;14723;55.814;37.460;2023-03-14T09:51:04;7.57;;;4.10;;
27213;SDS011;14723;55.814;37.460;2023-03-14T09:54:16;6.70;;;3.58;;
27213;SDS011;14723;55.814;37.460;2023-03-14T09:57:26;7.30;;;3.70;;
27213;SDS011;14723;55.814;37.460;2023-03-14T10:00:32;8.57;;;3.83;;
27213;SDS011;14723;55.814;37.460;2023-03-14T10:03:37;8.20;;;3.85;;
27213;SDS011;14723;55.814;37.460;2023-03-14T10:06:45;8.90;;;4.30;;
27213;SDS011;14723;55.814;37.460;2023-03-14T10:09:51;7.72;;;4.25;;
27213;SDS011;14723;55.814;37.460;2023-03-14T10:12:57;8.30;;;3.65;;
27213;SDS011;14723;55.814;37.460;2023-03-14T10:16:03;8.07;;;4.10;;
27213;SDS011;14723;55.814;37.460;2023-03-14T10:19:10;8.48;;;4.57;;
27213;SDS011;14723;55.814;37.460;2023-03-14T10:22:18;9.77;;;4.47;;
27213;SDS011;14723;55.814;37.460;2023-03-14T10:25:25;9.38;;;4.72;;
27213;SDS011;14723;55.814;37.460;2023-03-14T10:28:32;9.33;;;5.10;;
27213;SDS011;14723;55.814;37.460;2023-03-14T10:31:49;11.73;;;5.45;;
27213;SDS011;14723;55.814;37.460;2023-03-14T10:35:05;8.10;;;4.07;;
27213;SDS011;14723;55.814;37.460;2023-03-14T10:38:17;10.00;;;4.18;;
27213;SDS011;14723;55.814;37.460;2023-03-14T10:41:23;9.23;;;4.72;;
27213;SDS011;14723;55.814;37.460;2023-03-14T10:44:29;8.45;;;4.65;;
27213;SDS011;14723;55.814;37.460;2023-03-14T10:47:35;7.45;;;4.32;;
27213;SDS011;14723;55.814;37.460;2023-03-14T10:50:42;6.90;;;3.97;;
27213;SDS011;14723;55.814;37.460;2023-03-14T10:53:58;11.45;;;4.93;;
27213;SDS011;14723;55.814;37.460;2023-03-14T10:57:04;9.35;;;4.13;;
27213;SDS011;14723;55.814;37.460;2023-03-14T11:00:13;8.75;;;4.20;;
27213;SDS011;14723;55.814;37.460;2023-03-14T11:03:19;8.35;;;4.28;;
27213;SDS011;14723;55.814;37.460;2023-03-14T11:06:26;9.07;;;4.47;;
27213;SDS011;14723;55.814;37.460;2023-03-14T11:09:36;7.72;;;4.32;;
27213;SDS011;14723;55.814;37.460;2023-03-14T11:12:46;8.13;;;4.28;;
27213;SDS011;14723;55.814;37.460;2023-03-14T11:15:58;7.15;;;3.90;;
27213;SDS011;14723;55.814;37.460;2023-03-14T11:19:15;10.43;;;4.18;;
27213;SDS011;14723;55.814;37.460;2023-03-14T11:22:23;7.70;;;3.83;;
27213;SDS011;14723;55.814;37.460;2023-03-14T11:25:35;10.25;;;5.47;;
27213;SDS011;14723;55.814;37.460;2023-03-14T11:28:44;6.72;;;3.95;;
27213;SDS011;14723;55.814;37.460;2023-03-14T11:34:56;6.13;;;4.25;;
27213;SDS011;14723;55.814;37.460;2023-03-14T11:38:09;9.00;;;4.47;;
27213;SDS011;14723;55.814;37.460;2023-03-14T11:41:19;10.68;;;4.55;;
27213;SDS011;14723;55.814;37.460;2023-03-14T11:44:27;8.00;;;4.10;;
27213;SDS011;14723;55.814;37.460;2023-03-14T11:47:34;8.25;;;4.22;;
27213;SDS011;14723;55.814;37.460;2023-03-14T11:50:43;9.40;;;3.90;;
27213;SDS011;14723;55.814;37.460;2023-03-14T11:53:50;10.02;;;4.18;;
27213;SDS011;14723;55.814;37.460;2023-03-14T11:57:02;9.00;;;4.13;;
27213;SDS011;14723;55.814;37.460;2023-03-14T12:00:13;11.35;;;4.25;;
27213;SDS011;14723;55.814;37.460;2023-03-14T12:03:21;8.80;;;4.10;;
27213;SDS011;14723;55.814;37.460;2023-03-14T12:06:30;7.50;;;3.88;;
27213;SDS011;14723;55.814;37.460;2023-03-14T12:09:38;6.20;;;4.15;;
27213;SDS011;14723;55.814;37.460;2023-03-14T12:12:46;8.10;;;4.10;;
27213;SDS011;14723;55.814;37.460;2023-03-14T12:15:53;8.20;;;4.30;;
27213;SDS011;14723;55.814;37.460;2023-03-14T12:19:13;9.23;;;4.50;;
27213;SDS011;14723;55.814;37.460;2023-03-14T12:22:23;7.72;;;3.95;;
27213;SDS011;14723;55.814;37.460;2023-03-14T12:25:29;8.18;;;4.72;;
27213;SDS011;14723;55.814;37.460;2023-03-14T12:28:38;9.50;;;4.30;;
27213;SDS011;14723;55.814;37.460;2023-03-14T12:31:45;10.60;;;3.67;;
27213;SDS011;14723;55.814;37.460;2023-03-14T12:34:52;4.95;;;3.83;;
27213;SDS011;14723;55.814;37.460;2023-03-14T12:37:57;8.98;;;4.10;;
27213;SDS011;14723;55.814;37.460;2023-03-14T12:41:05;8.30;;;4.13;;
27213;SDS011;14723;55.814;37.460;2023-03-14T12:51:00;7.00;;;4.20;;
27213;SDS011;14723;55.814;37.460;2023-03-14T12:54:10;9.32;;;4.40;;
27213;SDS011;14723;55.814;37.460;2023-03-14T12:57:21;9.00;;;4.05;;
27213;SDS011;14723;55.814;37.460;2023-03-14T13:00:32;11.60;;;4.85;;
27213;SDS011;14723;55.814;37.460;2023-03-14T13:03:38;7.90;;;4.00;;
27213;SDS011;14723;55.814;37.460;2023-03-14T13:06:48;5.78;;;3.40;;
27213;SDS011;14723;55.814;37.460;2023-03-14T13:09:57;8.63;;;4.72;;
27213;SDS011;14723;55.814;37.460;2023-03-14T13:13:11;8.05;;;4.30;;
27213;SDS011;14723;55.814;37.460;2023-03-14T13:16:20;6.25;;;3.92;;
27213;SDS011;14723;55.814;37.460;2023-03-14T13:19:26;7.88;;;4.38;;
27213;SDS011;14723;55.814;37.460;2023-03-14T13:22:35;8.20;;;4.30;;
27213;SDS011;14723;55.814;37.460;2023-03-14T13:25:42;8.65;;;4.10;;
27213;SDS011;14723;55.814;37.460;2023-03-14T13:28:47;6.45;;;3.60;;
27213;SDS011;14723;55.814;37.460;2023-03-14T13:31:54;7.53;;;3.63;;
27213;SDS011;14723;55.814;37.460;2023-03-14T13:34:59;8.07;;;4.22;;
27213;SDS011;14723;55.814;37.460;2023-03-14T13:38:15;7.18;;;3.80;;
27213;SDS011;14723;55.814;37.460;2023-03-14T13:41:20;6.43;;;3.75;;
27213;SDS011;14723;55.814;37.460;2023-03-14T13:44:26;8.73;;;3.92;;
27213;SDS011;14723;55.814;37.460;2023-03-14T13:47:32;7.35;;;3.70;;
27213;SDS011;14723;55.814;37.460;2023-03-14T13:50:37;7.63;;;3.92;;
27213;SDS011;14723;55.814;37.460;2023-03-14T13:53:48;7.00;;;3.90;;
27213;SDS011;14723;55.814;37.460;2023-03-14T13:56:58;7.53;;;4.70;;
27213;SDS011;14723;55.814;37.460;2023-03-14T14:00:06;7.07;;;4.30;;
27213;SDS011;14723;55.814;37.460;2023-03-14T14:03:13;8.90;;;4.45;;
27213;SDS011;14723;55.814;37.460;2023-03-14T14:06:28;7.88;;;3.83;;
27213;SDS011;14723;55.814;37.460;2023-03-14T14:09:39;7.57;;;4.15;;
27213;SDS011;14723;55.814;37.460;2023-03-14T14:12:45;8.65;;;4.00;;
27213;SDS011;14723;55.814;37.460;2023-03-14T14:15:53;6.90;;;4.07;;
27213;SDS011;14723;55.814;37.460;2023-03-14T14:18:59;7.65;;;4.68;;
27213;SDS011;14723;55.814;37.460;2023-03-14T14:22:07;9.07;;;4.03;;
27213;SDS011;14723;55.814;37.460;2023-03-14T14:25:16;6.63;;;4.05;;
27213;SDS011;14723;55.814;37.460;2023-03-14T14:31:27;7.70;;;4.10;;
27213;SDS011;14723;55.814;37.460;2023-03-14T14:34:38;9.50;;;4.10;;
27213;SDS011;14723;55.814;37.460;2023-03-14T14:37:44;5.53;;;3.55;;
27213;SDS011;14723;55.814;37.460;2023-03-14T14:40:53;9.00;;;3.78;;
27213;SDS011;14723;55.814;37.460;2023-03-14T14:44:01;9.75;;;4.20;;
27213;SDS011;14723;55.814;37.460;2023-03-14T14:47:11;6.75;;;4.20;;
27213;SDS011;14723;55.814;37.460;2023-03-14T14:50:21;8.25;;;3.88;;
27213;SDS011;14723;55.814;37.460;2023-03-14T14:53:36;8.80;;;4.25;;
27213;SDS011;14723;55.814;37.460;2023-03-14T14:56:48;8.85;;;3.90;;
27213;SDS011;14723;55.814;37.460;2023-03-14T14:59:54;8.80;;;4.28;;
27213;SDS011;14723;55.814;37.460;2023-03-14T15:03:00;5.95;;;3.80;;
27213;SDS011;14723;55.814;37.460;2023-03-14T15:06:05;7.90;;;4.40;;
27213;SDS011;14723;55.814;37.460;2023-03-14T15:09:10;10.10;;;4.00;;
27213;SDS011;14723;55.814;37.460;2023-03-14T15:12:18;7.53;;;4.20;;
27213;SDS011;14723;55.814;37.460;2023-03-14T15:15:26;7.53;;;4.22;;
27213;SDS011;14723;55.814;37.460;2023-03-14T15:18:31;8.35;;;4.22;;
27213;SDS011;14723;55.814;37.460;2023-03-14T15:21:37;7.93;;;4.20;;
27213;SDS011;14723;55.814;37.460;2023-03-14T15:24:42;9.80;;;4.75;;
27213;SDS011;14723;55.814;37.460;2023-03-14T15:27:49;6.30;;;3.90;;
27213;SDS011;14723;55.814;37.460;2023-03-14T15:30:55;7.70;;;4.07;;
27213;SDS011;14723;55.814;37.460;2023-03-14T15:34:01;7.07;;;4.45;;
27213;SDS011;14723;55.814;37.460;2023-03-14T15:37:08;6.15;;;3.95;;
27213;SDS011;14723;55.814;37.460;2023-03-14T15:40:14;6.93;;;4.50;;
27213;SDS011;14723;55.814;37.460;2023-03-14T15:43:23;6.63;;;3.60;;
27213;SDS011;14723;55.814;37.460;2023-03-14T15:46:28;6.47;;;3.90;;
27213;SDS011;14723;55.814;37.460;2023-03-14T15:49:33;9.10;;;4.38;;
27213;SDS011;14723;55.814;37.460;2023-03-14T15:52:39;7.15;;;3.72;;
27213;SDS011;14723;55.814;37.460;2023-03-14T15:55:44;7.18;;;4.45;;
27213;SDS011;14723;55.814;37.460;2023-03-14T15:58:52;8.88;;;4.07;;
27213;SDS011;14723;55.814;37.460;2023-03-14T16:01:57;8.87;;;3.93;;
27213;SDS011;14723;55.814;37.460;2023-03-14T16:05:03;9.35;;;3.90;;
27213;SDS011;14723;55.814;37.460;2023-03-14T16:08:08;7.30;;;4.30;;
27213;SDS011;14723;55.814;37.460;2023-03-14T16:11:14;8.27;;;4.20;;
27213;SDS011;14723;55.814;37.460;2023-03-14T16:14:25;7.20;;;4.05;;
27213;SDS011;14723;55.814;37.460;2023-03-14T16:17:30;5.78;;;4.05;;
27213;SDS011;14723;55.814;37.460;2023-03-14T16:20:36;7.63;;;4.15;;
27213;SDS011;14723;55.814;37.460;2023-03-14T16:23:49;9.77;;;4.50;;
27213;SDS011;14723;55.814;37.460;2023-03-14T16:26:54;9.50;;;5.18;;
27213;SDS011;14723;55.814;37.460;2023-03-14T16:30:02;7.82;;;4.32;;
27213;SDS011;14723;55.814;37.460;2023-03-14T16:33:07;8.45;;;3.88;;
27213;SDS011;14723;55.814;37.460;2023-03-14T16:36:13;6.90;;;4.38;;
27213;SDS011;14723;55.814;37.460;2023-03-14T16:39:19;6.72;;;3.90;;
27213;SDS011;14723;55.814;37.460;2023-03-14T16:42:24;8.27;;;4.05;;
27213;SDS011;14723;55.814;37.460;2023-03-14T16:45:32;8.05;;;4.20;;
27213;SDS011;14723;55.814;37.460;2023-03-14T16:48:40;6.18;;;4.05;;
27213;SDS011;14723;55.814;37.460;2023-03-14T16:51:46;9.32;;;4.78;;
27213;SDS011;14723;55.814;37.460;2023-03-14T16:54:51;10.90;;;4.00;;
27213;SDS011;14723;55.814;37.460;2023-03-14T16:57:57;7.18;;;3.90;;
27213;SDS011;14723;55.814;37.460;2023-03-14T17:01:06;9.43;;;4.88;;
27213;SDS011;14723;55.814;37.460;2023-03-14T17:04:13;9.73;;;4.45;;
27213;SDS011;14723;55.814;37.460;2023-03-14T17:07:18;7.07;;;4.03;;
27213;SDS011;14723;55.814;37.460;2023-03-14T17:10:24;9.88;;;4.03;;
27213;SDS011;14723;55.814;37.460;2023-03-14T17:13:29;8.98;;;4.40;;
27213;SDS011;14723;55.814;37.460;2023-03-14T17:16:37;9.55;;;4.35;;
27213;SDS011;14723;55.814;37.460;2023-03-14T17:19:42;7.53;;;4.13;;
27213;SDS011;14723;55.814;37.460;2023-03-14T17:22:48;6.75;;;4.10;;
27213;SDS011;14723;55.814;37.460;2023-03-14T17:25:53;8.45;;;4.53;;
27213;SDS011;14723;55.814;37.460;2023-03-14T17:28:58;6.10;;;3.63;;
27213;SDS011;14723;55.814;37.460;2023-03-14T17:32:06;9.38;;;4.25;;
27213;SDS011;14723;55.814;37.460;2023-03-14T17:35:12;9.48;;;3.92;;
27213;SDS011;14723;55.814;37.460;2023-03-14T17:38:16;7.13;;;3.78;;
27213;SDS011;14723;55.814;37.460;2023-03-14T17:41:22;6.13;;;3.95;;
27213;SDS011;14723;55.814;37.460;2023-03-14T17:44:27;7.07;;;3.47;;
27213;SDS011;14723;55.814;37.460;2023-03-14T17:47:35;6.45;;;3.90;;
27213;SDS011;14723;55.814;37.460;2023-03-14T17:50:41;9.10;;;3.85;;
27213;SDS011;14723;55.814;37.460;2023-03-14T17:53:46;6.70;;;3.85;;
27213;SDS011;14723;55.814;37.460;2023-03-14T17:56:51;7.43;;;3.95;;
27213;SDS011;14723;55.814;37.460;2023-03-14T17:59:59;8.05;;;3.42;;
27213;SDS011;14723;55.814;37.460;2023-03-14T18:03:10;7.07;;;3.50;;
27213;SDS011;14723;55.814;37.460;2023-03-14T18:06:16;6.65;;;3.50;;
27213;SDS011;14723;55.814;37.460;2023-03-14T18:09:21;6.78;;;3.60;;
27213;SDS011;14723;55.814;37.460;2023-03-14T18:12:27;8.13;;;4.25;;
27213;SDS011;14723;55.814;37.460;2023-03-14T18:15:32;6.40;;;3.20;;
27213;SDS011;14723;55.814;37.460;2023-03-14T18:18:40;9.98;;;3.42;;
27213;SDS011;14723;55.814;37.460;2023-03-14T18:21:48;6.10;;;3.00;;
27213;SDS011;14723;55.814;37.460;2023-03-14T18:24:55;6.60;;;3.45;;
27213;SDS011;14723;55.814;37.460;2023-03-14T18:28:00;5.03;;;2.88;;
27213;SDS011;14723;55.814;37.460;2023-03-14T18:31:06;7.45;;;3.22;;
27213;SDS011;14723;55.814;37.460;2023-03-14T18:34:14;7.57;;;3.70;;
27213;SDS011;14723;55.814;37.460;2023-03-14T18:37:19;7.22;;;3.40;;
27213;SDS011;14723;55.814;37.460;2023-03-14T18:40:25;5.70;;;3.20;;
27213;SDS011;14723;55.814;37.460;2023-03-14T18:43:30;7.75;;;3.08;;
27213;SDS011;14723;55.814;37.460;2023-03-14T18:46:36;7.55;;;3.08;;
27213;SDS011;14723;55.814;37.460;2023-03-14T18:49:44;5.32;;;2.85;;
27213;SDS011;14723;55.814;37.460;2023-03-14T18:52:49;9.30;;;3.55;;
27213;SDS011;14723;55.814;37.460;2023-03-14T18:55:54;5.60;;;2.90;;
27213;SDS011;14723;55.814;37.460;2023-03-14T18:59:00;8.50;;;3.47;;
27213;SDS011;14723;55.814;37.460;2023-03-14T19:02:05;5.70;;;2.55;;